Hlavní strana
METAR-TAF:

METAR-TAF

Letiště :

Stanly County Airport

Albemarle, Severní Karolína, Spojené státy americké

zeměpisná šířka: 35-25-00N, zeměpisná délka: 080-09-03W, výška: 186 m

Aktuální stav počasí

Zpráva byla vytvořena před 43 minutami, v 17:35 UTC
Západní vítr 6 kt, proměnlivý mezi západojihozápadním a západoseverozápadním
Teplota 8°C
Vlhkost vzduchu 34%
Tlak 1018 hPa
Viditelnost: 16.1 km
Jasno

METAR: KVUJ 271735Z AUTO 27006KT 240V300 10SM CLR 08/M07 A3007 RMK AO2 T00801068

Čas: 13:18 (18:18 UTC)


TAF: chybějící

Stav a předpovědi počasí z více než 4 000 letišť (zprávy METAR a TAF).

Červené a žluté tečky na mapě představují dostupné meteorologické stanice.

Když kurzor umístíte na tečku, zobrazí se název stanice.

Pak kliknutím zobrazíte stav a předpověď počasí.

Chcete-li změnit mapu, kliknutím na zelené tlačítko se znaménkem +mapu přiblížíte, kliknutím na zelené tlačítko se znaménkem – mapu oddálíte a kliknutím na zelené šipky přejdete na sousední mapy.


METAR-TAF: